Time;durP1;ratioP1;P1;durP2;ratioP2;P2;SDS_P1;SDS_P2;PMS_P1;PMS_P2;Temp;Humidity;BMP_temperature;BMP_pressure;BME280_temperature;BME280_humidity;BME280_pressure;Samples;Min_cycle;Max_cycle;Signal;HPM_P1;HPM_P2
2022/10/06 00:00:33;;;;;;;10.02;2.20;;;;;;;12.32;98.25;102093.88;5097948;28;20604;-87
2022/10/06 00:02:59;;;;;;;10.43;1.75;;;;;;;12.30;97.93;102100.19;5098983;28;20372;-87
2022/10/06 00:05:25;;;;;;;13.00;2.03;;;;;;;12.29;97.84;102107.25;5095399;28;20024;-87
2022/10/06 00:07:50;;;;;;;9.88;2.10;;;;;;;12.25;97.93;102118.94;5093392;28;20032;-87
2022/10/06 00:10:16;;;;;;;10.57;1.98;;;;;;;12.23;98.31;102123.47;5092489;28;20494;-87
2022/10/06 00:12:47;;;;;;;11.40;2.00;;;;;;;12.21;98.93;102135.91;5094178;28;20032;-87
2022/10/06 00:15:15;;;;;;;15.80;2.50;;;;;;;12.18;98.46;102138.72;5092906;28;20407;-88
2022/10/06 00:17:40;;;;;;;12.38;2.15;;;;;;;12.17;99.25;102132.59;5093050;28;20032;-88
2022/10/06 00:20:07;;;;;;;9.10;1.83;;;;;;;12.17;99.72;102143.16;5099672;28;20455;-88
2022/10/06 00:22:41;;;;;;;9.95;1.90;;;;;;;12.14;99.94;102148.63;5111181;28;20031;-88
2022/10/06 00:25:08;;;;;;;10.98;2.08;;;;;;;12.15;99.62;102160.03;5111109;28;20023;-88
2022/10/06 00:27:39;;;;;;;9.40;2.00;;;;;;;12.12;100.00;102161.06;5113019;28;20395;-87
2022/10/06 00:30:08;;;;;;;8.98;2.20;;;;;;;12.11;100.00;102163.78;5110867;28;20024;-88
2022/10/06 00:32:33;;;;;;;12.05;2.53;;;;;;;12.08;100.00;102158.69;5111788;28;20070;-88
2022/10/06 00:34:59;;;;;;;12.90;2.13;;;;;;;12.06;100.00;102169.34;5111374;28;20051;-88
2022/10/06 00:37:26;;;;;;;14.55;2.13;;;;;;;12.04;100.00;102175.66;5111468;28;20106;-89
2022/10/06 00:39:51;;;;;;;9.32;2.00;;;;;;;12.00;100.00;102177.59;5111086;28;20483;-88
2022/10/06 00:42:50;;;;;;;10.02;1.90;;;;;;;12.03;100.00;102173.94;5110409;28;20024;-88
2022/10/06 00:45:19;;;;;;;11.15;2.20;;;;;;;11.98;99.72;102174.19;5110573;28;20146;-88
2022/10/06 00:47:45;;;;;;;13.63;2.35;;;;;;;12.00;99.58;102177.59;5111049;28;20490;-87
2022/10/06 00:50:11;;;;;;;8.25;1.80;;;;;;;11.97;99.35;102184.84;5110713;28;20023;-88
2022/10/06 00:52:38;;;;;;;10.85;2.08;;;;;;;11.93;99.83;102187.66;5110337;28;20028;-88
2022/10/06 00:55:08;;;;;;;9.43;2.28;;;;;;;11.90;99.30;102187.84;5111873;28;20058;-88
2022/10/06 00:57:38;;;;;;;10.93;2.40;;;;;;;11.90;99.59;102192.25;5110905;28;20042;-87
2022/10/06 01:00:05;;;;;;;10.48;2.20;;;;;;;11.87;98.45;102188.00;5110595;28;20020;-88
2022/10/06 01:02:41;;;;;;;11.07;2.05;;;;;;;11.87;98.51;102203.84;5111445;28;20413;-88
2022/10/06 01:05:10;;;;;;;13.05;2.20;;;;;;;11.84;97.80;102198.75;5110171;28;20102;-84
2022/10/06 01:07:36;;;;;;;9.02;2.45;;;;;;;11.85;97.83;102205.72;5111480;28;20404;-88
2022/10/06 01:10:02;;;;;;;11.20;2.20;;;;;;;11.84;97.06;102206.66;5111298;27;20073;-88
2022/10/06 01:12:29;;;;;;;7.93;1.70;;;;;;;11.82;97.15;102210.31;5109970;28;20023;-88
2022/10/06 01:14:55;;;;;;;8.02;2.03;;;;;;;11.82;96.99;102215.59;5109642;28;20475;-88
2022/10/06 01:17:34;;;;;;;10.07;2.70;;;;;;;11.80;96.12;102220.94;5109348;28;20062;-88
2022/10/06 01:20:11;;;;;;;12.80;2.50;;;;;;;11.78;96.14;102229.88;5109396;28;20011;-88
2022/10/06 01:22:40;;;;;;;10.02;1.85;;;;;;;11.75;96.33;102237.94;5110984;27;20027;-88
2022/10/06 01:25:16;;;;;;;11.93;2.25;;;;;;;11.74;96.03;102239.72;5109458;28;20031;-88
2022/10/06 01:27:44;;;;;;;8.93;1.98;;;;;;;11.73;95.97;102243.31;5109099;28;20032;-88
2022/10/06 01:30:15;;;;;;;10.50;2.10;;;;;;;11.71;96.03;102250.44;5111066;28;20020;-88
2022/10/06 01:32:41;;;;;;;10.50;2.15;;;;;;;11.71;96.06;102250.44;5110151;28;20051;-88
2022/10/06 01:35:08;;;;;;;17.35;3.17;;;;;;;11.71;96.09;102260.16;5109104;28;20066;-88
2022/10/06 01:37:34;;;;;;;12.68;2.72;;;;;;;11.70;95.73;102253.19;5111262;28;20476;-85
2022/10/06 01:39:59;;;;;;;10.90;2.45;;;;;;;11.70;95.05;102253.19;5109257;28;20211;-88
2022/10/06 01:42:24;;;;;;;16.13;3.08;;;;;;;11.69;95.05;102262.03;5110176;28;20132;-88
2022/10/06 01:44:50;;;;;;;16.27;2.92;;;;;;;11.66;94.54;102263.03;5111326;27;20047;-90
2022/10/06 01:47:15;;;;;;;11.40;2.38;;;;;;;11.66;95.19;102272.75;5109630;28;20518;-88
2022/10/06 01:49:41;;;;;;;8.77;2.20;;;;;;;11.65;94.95;102271.88;5111127;28;20053;-85
2022/10/06 01:52:07;;;;;;;13.93;2.65;;;;;;;11.63;94.83;102272.91;5111099;28;20023;-87
2022/10/06 01:54:32;;;;;;;9.48;2.33;;;;;;;11.63;94.54;102284.31;5110303;28;20076;-88
2022/10/06 01:56:58;;;;;;;11.15;2.60;;;;;;;11.59;94.90;102283.59;5110826;28;20027;-88
2022/10/06 01:59:23;;;;;;;11.32;2.90;;;;;;;11.57;95.01;102284.63;5109786;28;20047;-88
2022/10/06 02:01:49;;;;;;;15.23;2.85;;;;;;;11.55;94.48;102291.75;5110482;28;20084;-88
2022/10/06 02:04:15;;;;;;;10.60;2.42;;;;;;;11.52;94.55;102294.56;5110203;28;20657;-88
2022/10/06 02:06:40;;;;;;;16.40;2.50;;;;;;;11.52;94.35;102286.66;5109257;28;20079;-87
2022/10/06 02:09:12;;;;;;;17.77;3.10;;;;;;;11.49;94.03;102290.31;5107886;28;20364;-88
2022/10/06 02:11:37;;;;;;;12.27;2.95;;;;;;;11.46;94.02;102292.28;5110702;28;20495;-88
2022/10/06 02:14:02;;;;;;;13.35;2.40;;;;;;;11.47;93.82;102304.53;5109924;28;20024;-87
2022/10/06 02:16:30;;;;;;;13.95;3.05;;;;;;;11.46;94.19;102308.09;5109195;28;20049;-89
2022/10/06 02:18:57;;;;;;;16.75;3.20;;;;;;;11.41;94.03;102310.13;5110094;28;20043;-88
2022/10/06 02:21:23;;;;;;;11.10;2.95;;;;;;;11.40;94.15;102311.06;5090111;28;20024;-88
2022/10/06 02:23:49;;;;;;;14.30;3.10;;;;;;;11.38;93.97;102310.28;5089211;28;20027;-88
2022/10/06 02:26:19;;;;;;;17.35;3.10;;;;;;;11.37;94.00;102324.41;5087583;28;20108;-88
2022/10/06 02:28:45;;;;;;;13.27;3.03;;;;;;;11.34;94.52;102319.28;5088189;28;20024;-88
2022/10/06 02:31:12;;;;;;;13.68;2.88;;;;;;;11.31;94.73;102333.50;5088298;28;20373;-88
2022/10/06 02:33:38;;;;;;;10.93;2.72;;;;;;;11.27;95.08;102332.81;5089743;28;20050;-89
2022/10/06 02:36:05;;;;;;;12.35;2.90;;;;;;;11.26;95.46;102331.09;5088585;28;20028;-88
2022/10/06 02:38:31;;;;;;;12.70;2.85;;;;;;;11.22;95.20;102332.19;5089395;28;20028;-89
2022/10/06 02:40:57;;;;;;;14.65;2.85;;;;;;;11.19;95.84;102336.75;5090183;28;20069;-89
2022/10/06 02:43:23;;;;;;;9.55;2.13;;;;;;;11.15;95.63;102343.97;5089649;28;20098;-89
2022/10/06 02:45:54;;;;;;;14.55;3.05;;;;;;;11.13;96.24;102345.84;5090257;28;20131;-89
2022/10/06 02:48:20;;;;;;;11.77;2.65;;;;;;;11.11;96.15;102355.59;5088039;28;20583;-88
2022/10/06 02:50:58;;;;;;;13.68;2.90;;;;;;;11.10;96.35;102351.25;5088585;28;20131;-85
2022/10/06 02:53:24;;;;;;;13.35;2.88;;;;;;;11.09;96.51;102360.09;5089069;28;20028;-89
2022/10/06 02:55:56;;;;;;;11.57;2.63;;;;;;;11.09;96.34;102367.16;5088861;28;20115;-88
2022/10/06 02:58:21;;;;;;;14.15;3.00;;;;;;;11.06;96.53;102368.16;5087874;28;20025;-87
2022/10/06 03:00:46;;;;;;;12.77;3.55;;;;;;;11.02;96.58;102366.63;5090557;28;20036;-89
2022/10/06 03:03:12;;;;;;;17.05;3.55;;;;;;;10.98;96.60;102365.06;5088069;28;20115;-89
2022/10/06 03:05:37;;;;;;;14.77;2.70;;;;;;;10.98;96.70;102376.47;5089340;28;20031;-89
2022/10/06 03:08:03;;;;;;;10.73;2.65;;;;;;;10.95;96.42;102373.97;5089930;28;20044;-89
2022/10/06 03:10:28;;;;;;;14.85;2.88;;;;;;;10.93;96.69;102393.44;5087983;28;20106;-89
2022/10/06 03:12:53;;;;;;;14.40;3.28;;;;;;;10.90;96.46;102388.31;5088617;28;20051;-89
2022/10/06 03:15:19;;;;;;;14.88;2.95;;;;;;;10.85;97.26;102395.59;5088203;28;20032;-88
2022/10/06 03:17:48;;;;;;;21.75;3.05;;;;;;;10.81;97.21;102392.28;5089066;28;20024;-89
2022/10/06 03:20:13;;;;;;;11.93;2.83;;;;;;;10.78;97.75;102402.94;5096900;28;20081;-88
2022/10/06 03:22:38;;;;;;;18.92;2.95;;;;;;;10.78;97.67;102399.44;5113664;28;20028;-89
2022/10/06 03:25:04;;;;;;;11.80;2.92;;;;;;;10.76;97.44;102401.31;5111793;28;20023;-86
2022/10/06 03:27:29;;;;;;;12.13;2.60;;;;;;;10.71;97.80;102413.84;5110888;28;20047;-88
2022/10/06 03:29:58;;;;;;;11.32;2.67;;;;;;;10.68;98.13;102418.34;5113396;28;20387;-88
2022/10/06 03:32:23;;;;;;;14.88;2.97;;;;;;;10.66;97.63;102411.44;5111260;28;20024;-88
2022/10/06 03:34:49;;;;;;;12.57;2.63;;;;;;;10.63;98.01;102414.22;5112568;28;20278;-89
2022/10/06 03:37:14;;;;;;;13.38;3.00;;;;;;;10.58;97.84;102419.72;5112715;28;20404;-88
2022/10/06 03:39:40;;;;;;;15.60;3.40;;;;;;;10.58;97.93;102422.34;5112941;28;20104;-89
2022/10/06 03:42:05;;;;;;;10.52;2.53;;;;;;;10.56;97.84;102421.56;5112307;28;20032;-88
2022/10/06 03:44:33;;;;;;;15.75;3.15;;;;;;;10.54;98.04;102427.84;5112084;28;20511;-88
2022/10/06 03:46:59;;;;;;;13.15;3.10;;;;;;;10.50;98.12;102431.56;5111243;28;20020;-88
2022/10/06 03:49:24;;;;;;;12.38;2.67;;;;;;;10.45;98.29;102439.69;5112118;28;20031;-89
2022/10/06 03:51:49;;;;;;;15.43;3.72;;;;;;;10.42;97.63;102445.09;5113721;28;20070;-89
2022/10/06 03:54:15;;;;;;;17.60;3.33;;;;;;;10.39;98.30;102446.97;5111915;28;20027;-89
2022/10/06 03:56:41;;;;;;;13.27;2.90;;;;;;;10.37;98.33;102447.06;5112306;28;20035;-89
2022/10/06 03:59:11;;;;;;;14.63;2.58;;;;;;;10.33;98.42;102453.38;5111630;28;20023;-88
2022/10/06 04:01:39;;;;;;;16.10;3.38;;;;;;;10.30;98.40;102456.16;5111560;28;20024;-89
2022/10/06 04:04:05;;;;;;;17.80;2.97;;;;;;;10.26;98.46;102459.88;5111807;28;20054;-89
2022/10/06 04:06:33;;;;;;;15.57;3.17;;;;;;;10.26;98.60;102470.38;5111648;28;20019;-88
2022/10/06 04:08:59;;;;;;;19.05;3.25;;;;;;;10.22;98.51;102474.09;5111973;28;20024;-88
2022/10/06 04:11:33;;;;;;;21.80;3.63;;;;;;;10.22;98.09;102479.34;5110965;28;20077;-88
2022/10/06 04:14:01;;;;;;;14.88;3.40;;;;;;;10.17;98.15;102483.94;5112324;28;20024;-88
2022/10/06 04:16:29;;;;;;;21.33;3.83;;;;;;;10.14;98.42;102492.81;5111554;28;20103;-89
2022/10/06 04:18:57;;;;;;;19.08;3.47;;;;;;;10.11;98.01;102494.75;5111277;28;20357;-89
2022/10/06 04:21:23;;;;;;;16.23;3.17;;;;;;;10.06;98.40;102494.97;5092494;28;20035;-88
2022/10/06 04:23:51;;;;;;;17.63;3.15;;;;;;;10.08;98.52;102497.53;5091364;28;20074;-88
2022/10/06 04:26:19;;;;;;;16.75;3.38;;;;;;;10.01;98.39;102502.22;5091365;28;20016;-88
2022/10/06 04:28:45;;;;;;;17.92;3.70;;;;;;;9.99;98.27;102504.03;5090876;28;20387;-88
2022/10/06 04:31:17;;;;;;;20.27;3.33;;;;;;;9.96;98.34;102505.00;5090797;28;20468;-88
2022/10/06 04:33:44;;;;;;;19.73;3.65;;;;;;;9.93;98.59;102505.16;5090619;28;20024;-88
2022/10/06 04:36:13;;;;;;;13.57;3.00;;;;;;;9.91;98.06;102512.25;5089297;28;20028;-88
2022/10/06 04:38:39;;;;;;;20.58;4.25;;;;;;;9.85;98.19;102506.44;5091814;28;20044;-88
2022/10/06 04:41:13;;;;;;;17.60;3.40;;;;;;;9.86;98.47;102514.25;5090171;28;20059;-88
2022/10/06 04:43:38;;;;;;;14.55;3.83;;;;;;;9.85;98.37;102514.31;5090030;28;20428;-89
2022/10/06 04:46:04;;;;;;;16.83;3.75;;;;;;;9.83;98.58;102524.91;5092024;28;20020;-87
2022/10/06 04:48:30;;;;;;;14.88;3.10;;;;;;;9.81;98.34;102524.09;5091679;28;20093;-88
2022/10/06 04:51:04;;;;;;;20.00;4.28;;;;;;;9.85;98.63;102522.19;5090992;28;20285;-88
2022/10/06 04:53:30;;;;;;;21.65;3.90;;;;;;;9.81;98.40;102529.38;5090304;28;20044;-86
2022/10/06 04:56:04;;;;;;;13.98;3.85;;;;;;;9.81;98.40;102536.41;5091781;28;20926;-88
2022/10/06 04:58:33;;;;;;;17.25;3.38;;;;;;;9.75;98.38;102534.91;5089552;28;20028;-88
2022/10/06 05:00:59;;;;;;;17.83;3.60;;;;;;;9.73;98.80;102539.38;5090479;28;20132;-88
2022/10/06 05:03:29;;;;;;;21.95;3.95;;;;;;;9.68;98.54;102549.22;5091731;28;20049;-88
2022/10/06 05:06:06;;;;;;;20.63;4.07;;;;;;;9.68;98.68;102543.97;5091368;28;20111;-89
2022/10/06 05:08:32;;;;;;;20.52;4.32;;;;;;;9.63;99.01;102561.72;5089723;28;20035;-88
2022/10/06 05:10:59;;;;;;;18.38;3.70;;;;;;;9.58;99.04;102564.50;5089661;28;20020;-88
2022/10/06 05:13:25;;;;;;;17.25;4.38;;;;;;;9.54;99.01;102559.44;5091527;28;20032;-88
2022/10/06 05:15:55;;;;;;;14.88;3.92;;;;;;;9.56;98.99;102570.75;5091829;28;20024;-88
2022/10/06 05:18:21;;;;;;;18.55;3.63;;;;;;;9.49;99.07;102567.53;5089805;28;20103;-89
2022/10/06 05:20:58;;;;;;;20.75;4.57;;;;;;;9.48;99.08;102567.59;5102345;28;20028;-88
2022/10/06 05:23:25;;;;;;;21.52;3.85;;;;;;;9.43;99.04;102571.28;5108792;28;20472;-88
2022/10/06 05:25:55;;;;;;;17.60;3.83;;;;;;;9.42;99.24;102582.69;5110271;28;20015;-88
2022/10/06 05:28:22;;;;;;;16.25;4.10;;;;;;;9.39;99.00;102585.47;5110626;28;20039;-88
2022/10/06 05:31:18;;;;;;;16.00;3.65;;;;;;;9.40;99.25;102589.78;5109957;28;20032;-88
2022/10/06 05:33:43;;;;;;;18.75;4.55;;;;;;;9.33;99.38;102598.84;5108369;28;20027;-86
2022/10/06 05:36:20;;;;;;;17.77;4.00;;;;;;;9.32;99.32;102605.00;5111076;28;20024;-87
2022/10/06 05:38:45;;;;;;;23.25;4.18;;;;;;;9.34;99.16;102613.69;5110962;28;20026;-87
2022/10/06 05:41:14;;;;;;;24.83;4.78;;;;;;;9.29;98.92;102617.41;5108330;28;20023;-87
2022/10/06 05:43:40;;;;;;;19.48;4.28;;;;;;;9.27;98.99;102621.88;5109007;28;20130;-87
2022/10/06 05:46:16;;;;;;;21.83;4.55;;;;;;;9.26;99.18;102634.16;5108758;28;20016;-87
2022/10/06 05:48:44;;;;;;;25.33;4.22;;;;;;;9.24;99.55;102632.50;5112053;28;20106;-87
2022/10/06 05:51:13;;;;;;;20.73;4.57;;;;;;;9.25;99.61;102634.22;5109597;28;20051;-87
2022/10/06 05:53:39;;;;;;;20.52;4.20;;;;;;;9.22;99.53;102627.31;5111078;28;20111;-87
2022/10/06 05:56:12;;;;;;;22.65;4.45;;;;;;;9.20;99.21;102639.63;5109731;28;20030;-88
2022/10/06 05:58:40;;;;;;;22.05;4.38;;;;;;;9.20;99.46;102644.03;5115389;28;20031;-86
2022/10/06 06:01:12;;;;;;;19.48;4.30;;;;;;;9.20;99.54;102642.25;5118825;28;20030;-87
2022/10/06 06:03:39;;;;;;;24.65;4.82;;;;;;;9.17;99.06;102652.88;5120211;28;20034;-87
2022/10/06 06:06:17;;;;;;;26.13;4.78;;;;;;;9.19;99.33;102651.03;5116767;28;20478;-86
2022/10/06 06:08:43;;;;;;;19.90;4.20;;;;;;;9.15;99.71;102652.09;5117185;28;20091;-86
2022/10/06 06:11:09;;;;;;;19.67;3.97;;;;;;;9.19;99.29;102658.94;5117419;28;20055;-87
2022/10/06 06:13:35;;;;;;;20.30;4.10;;;;;;;9.17;99.28;102660.75;5113222;28;20515;-85
2022/10/06 06:16:05;;;;;;;21.08;4.40;;;;;;;9.15;99.12;102662.59;5109958;27;20023;-84
2022/10/06 06:18:32;;;;;;;24.20;4.18;;;;;;;9.17;99.16;102663.38;5110456;28;20103;-85
2022/10/06 06:21:03;;;;;;;22.88;4.07;;;;;;;9.16;99.46;102664.31;5094407;28;20089;-84
2022/10/06 06:23:36;;;;;;;21.92;4.15;;;;;;;9.17;99.41;102662.53;5108933;28;20032;-87
2022/10/06 06:26:08;;;;;;;24.75;4.65;;;;;;;9.18;99.42;102672.97;5108889;28;20023;-84
2022/10/06 06:28:35;;;;;;;20.27;4.28;;;;;;;9.19;99.46;102669.44;5108365;28;20035;-87
2022/10/06 06:31:09;;;;;;;16.65;3.75;;;;;;;9.22;99.09;102674.59;5109928;28;20026;-87
2022/10/06 06:33:39;;;;;;;20.75;4.18;;;;;;;9.23;99.06;102671.06;5109178;28;20035;-86
2022/10/06 06:36:16;;;;;;;21.40;3.83;;;;;;;9.26;99.54;102684.06;5109569;28;20016;-85
2022/10/06 06:38:44;;;;;;;23.05;4.35;;;;;;;9.28;99.27;102679.59;5108842;28;20090;-86
2022/10/06 06:41:24;;;;;;;25.90;4.65;;;;;;;9.29;99.10;102694.44;5109489;28;20083;-87
2022/10/06 06:43:51;;;;;;;23.08;4.80;;;;;;;9.34;98.81;102689.88;5109359;28;20031;-86
2022/10/06 06:46:18;;;;;;;25.88;4.88;;;;;;;9.37;98.86;102695.00;5107780;28;20055;-87
2022/10/06 06:48:44;;;;;;;20.23;3.97;;;;;;;9.40;99.16;102704.53;5109793;28;20061;-87
2022/10/06 06:51:10;;;;;;;19.60;4.25;;;;;;;9.45;98.79;102705.19;5105358;28;20097;-86
2022/10/06 06:53:37;;;;;;;27.13;4.25;;;;;;;9.50;98.82;102705.88;5105612;28;20395;-87
2022/10/06 06:56:03;;;;;;;20.20;4.75;;;;;;;9.55;98.43;102711.78;5105729;28;20054;-87
2022/10/06 06:58:29;;;;;;;22.17;4.97;;;;;;;9.61;98.69;102713.34;5093378;28;20508;-86
2022/10/06 07:01:13;;;;;;;22.85;4.38;;;;;;;9.63;97.99;102716.78;5103997;28;20028;-87
2022/10/06 07:03:44;;;;;;;23.85;4.68;;;;;;;9.70;98.41;102718.22;5114113;28;20020;-87
2022/10/06 07:06:15;;;;;;;19.85;4.22;;;;;;;9.76;97.68;102723.25;5113012;28;20030;-87
2022/10/06 07:08:43;;;;;;;26.90;5.38;;;;;;;9.83;97.25;102723.84;5107936;28;20027;-87
2022/10/06 07:11:15;;;;;;;28.10;5.18;;;;;;;9.88;97.11;102733.25;5093224;28;20020;-87
2022/10/06 07:13:41;;;;;;;27.80;5.22;;;;;;;9.97;97.07;102742.53;5094635;28;20026;-87
2022/10/06 07:27:09;;;;;;;21.08;4.50;;;;;;;10.37;95.45;102747.00;5110077;28;20104;-87
2022/10/06 07:29:35;;;;;;;19.88;4.78;;;;;;;10.45;95.55;102760.72;5112900;28;20031;-88
2022/10/06 07:32:00;;;;;;;21.08;4.63;;;;;;;10.50;94.62;102758.75;5112483;28;20057;-88
2022/10/06 07:34:26;;;;;;;20.55;4.45;;;;;;;10.56;94.25;102763.75;5113507;28;20110;-88
2022/10/06 07:36:53;;;;;;;22.05;4.43;;;;;;;10.63;94.30;102764.31;5108298;28;20072;-87
2022/10/06 07:39:19;;;;;;;20.40;4.80;;;;;;;10.71;94.16;102774.50;5091499;28;20024;-86
2022/10/06 07:41:44;;;;;;;23.17;4.15;;;;;;;10.77;93.76;102782.16;5093448;28;20505;-89
2022/10/06 07:44:10;;;;;;;21.45;4.60;;;;;;;10.82;93.37;102783.69;5092690;28;20087;-88
2022/10/06 07:46:35;;;;;;;21.55;5.03;;;;;;;10.88;93.60;102779.91;5108530;28;20022;-88
2022/10/06 07:49:00;;;;;;;18.75;4.50;;;;;;;10.96;93.19;102785.69;5092777;28;20035;-88
2022/10/06 07:51:28;;;;;;;20.95;5.20;;;;;;;11.02;92.38;102793.31;5093329;28;20058;-89
2022/10/06 07:53:54;;;;;;;20.55;4.80;;;;;;;11.10;92.13;102791.19;5092865;28;20028;-85
2022/10/06 07:56:19;;;;;;;18.42;4.82;;;;;;;11.20;91.91;102792.47;5091614;28;20040;-88
2022/10/06 07:58:49;;;;;;;21.10;4.22;;;;;;;11.30;90.89;102799.06;5093579;28;20027;-88
2022/10/06 08:01:17;;;;;;;22.48;4.07;;;;;;;11.41;90.60;102805.63;5092320;28;20326;-88
2022/10/06 08:03:44;;;;;;;20.30;4.25;;;;;;;11.48;90.30;102807.88;5093469;28;20027;-88
2022/10/06 08:06:14;;;;;;;19.60;3.90;;;;;;;11.57;89.47;102806.59;5092340;28;20380;-88
2022/10/06 08:08:41;;;;;;;21.70;4.35;;;;;;;11.68;90.19;102801.69;5092221;28;20063;-88
2022/10/06 08:11:08;;;;;;;23.42;4.32;;;;;;;11.76;87.88;102810.09;5091835;28;20035;-87
2022/10/06 08:13:41;;;;;;;22.25;4.55;;;;;;;11.86;87.29;102816.66;5091969;28;20202;-87
2022/10/06 08:16:13;;;;;;;19.90;4.28;;;;;;;12.01;88.38;102819.50;5091046;28;20383;-86
2022/10/06 08:18:39;;;;;;;22.92;4.07;;;;;;;12.12;86.40;102825.13;5109083;28;20481;-86
2022/10/06 08:21:16;;;;;;;14.43;3.35;;;;;;;12.24;86.22;102832.44;5106305;28;20024;-86
2022/10/06 08:23:44;;;;;;;21.27;3.97;;;;;;;12.36;86.13;102833.59;5113211;28;20034;-87
2022/10/06 08:26:14;;;;;;;19.70;3.50;;;;;;;12.50;85.31;102829.38;5112963;28;20058;-86
2022/10/06 08:28:43;;;;;;;19.40;4.60;;;;;;;12.64;86.18;102835.72;5112913;28;20063;-87
2022/10/06 08:31:14;;;;;;;27.25;4.35;;;;;;;12.74;84.56;102842.25;5111472;28;20031;-86
2022/10/06 08:33:41;;;;;;;20.92;3.90;;;;;;;12.93;84.22;102845.66;5111693;28;20035;-86
2022/10/06 08:36:10;;;;;;;24.70;4.95;;;;;;;13.02;83.62;102845.19;5110784;28;20111;-87
2022/10/06 08:38:39;;;;;;;14.48;3.50;;;;;;;13.20;84.92;102847.81;5111531;28;20027;-87
2022/10/06 08:41:26;;;;;;;22.02;4.20;;;;;;;13.37;83.61;102853.06;5111026;28;20026;-86
2022/10/06 08:44:05;;;;;;;18.17;4.03;;;;;;;13.45;82.78;102858.78;5110589;28;20026;-87
2022/10/06 08:46:37;;;;;;;21.23;3.58;;;;;;;13.54;81.91;102858.28;5110772;28;20023;-86
2022/10/06 08:49:04;;;;;;;19.65;4.45;;;;;;;13.65;80.67;102855.94;5110926;28;20118;-87
2022/10/06 08:52:01;;;;;;;21.67;4.07;;;;;;;13.75;80.24;102857.13;5112935;28;20036;-87
2022/10/06 08:54:57;;;;;;;16.60;3.88;;;;;;;13.89;80.92;102858.16;5073833;28;20067;-88
2022/10/06 08:57:57;;;;;;;20.02;4.18;;;;;;;14.09;81.31;102871.13;5110733;28;20487;-87
2022/10/06 09:00:23;;;;;;;18.40;3.88;;;;;;;14.14;78.05;102874.38;5088739;28;20077;-86
2022/10/06 09:02:49;;;;;;;13.00;3.55;;;;;;;14.18;77.12;102880.34;5112851;28;20059;-87
2022/10/06 09:05:24;;;;;;;16.50;4.00;;;;;;;14.24;77.10;102880.84;5111170;28;20027;-87
2022/10/06 09:08:33;;;;;;;17.20;3.63;;;;;;;14.44;77.67;102881.53;5111095;28;20022;-86
2022/10/06 09:11:44;;;;;;;18.95;3.67;;;;;;;14.53;76.74;102884.50;5111372;28;20441;-86
2022/10/06 09:14:13;;;;;;;16.73;3.85;;;;;;;14.57;75.08;102887.84;5111854;28;20023;-88
2022/10/06 09:16:43;;;;;;;15.45;3.40;;;;;;;14.65;74.74;102891.72;5110353;28;20496;-87
2022/10/06 09:19:12;;;;;;;14.93;3.08;;;;;;;14.67;73.50;102894.28;5109952;28;20088;-87
2022/10/06 09:21:49;;;;;;;17.58;3.72;;;;;;;14.78;74.72;102891.84;5112023;28;20031;-87
2022/10/06 09:24:53;;;;;;;14.68;3.50;;;;;;;14.64;73.38;102899.78;5109410;28;20099;-88
2022/10/06 09:27:29;;;;;;;19.23;3.90;;;;;;;14.67;74.00;102899.59;5077142;28;20031;-86
2022/10/06 09:29:54;;;;;;;16.10;3.40;;;;;;;14.71;72.87;102895.81;5111626;27;20056;-86
2022/10/06 09:32:21;;;;;;;19.38;3.50;;;;;;;14.80;72.99;102908.53;5099109;28;20136;-86
2022/10/06 09:34:58;;;;;;;17.30;3.63;;;;;;;15.06;73.93;102906.97;5089964;28;20047;-87
2022/10/06 09:37:24;;;;;;;13.95;3.50;;;;;;;15.12;71.42;102905.75;5097643;28;20493;-86
2022/10/06 09:39:51;;;;;;;14.70;3.75;;;;;;;15.29;71.73;102911.78;5111085;28;20019;-86
2022/10/06 09:42:24;;;;;;;13.48;3.13;;;;;;;15.34;70.85;102912.34;5109337;28;20027;-87
2022/10/06 09:44:50;;;;;;;14.20;2.97;;;;;;;15.28;70.37;102922.47;5111511;28;20415;-88
2022/10/06 09:47:27;;;;;;;18.13;4.03;;;;;;;15.35;71.27;102918.50;5109966;28;20033;-89
2022/10/06 09:50:13;;;;;;;18.35;3.60;;;;;;;15.30;71.68;102921.44;5111281;28;20031;-87
2022/10/06 09:52:46;;;;;;;20.13;4.00;;;;;;;15.28;71.36;102925.13;5110583;28;20023;-88
2022/10/06 09:55:14;;;;;;;15.35;3.28;;;;;;;15.35;71.23;102924.66;5110741;28;20035;-87
2022/10/06 09:57:52;;;;;;;17.48;3.40;;;;;;;15.39;71.08;102925.31;5111681;28;20027;-87
2022/10/06 10:00:30;;;;;;;18.25;3.45;;;;;;;15.49;70.13;102915.84;5108993;28;20027;-86
2022/10/06 10:03:02;;;;;;;12.60;3.30;;;;;;;15.56;69.36;102926.91;5111303;28;20046;-86
2022/10/06 10:05:45;;;;;;;11.98;2.95;;;;;;;15.63;69.64;102923.84;5111454;28;20042;-86
2022/10/06 10:08:25;;;;;;;14.18;2.95;;;;;;;15.66;69.75;102914.84;5108742;28;20024;-86
2022/10/06 10:14:00;;;;;;;12.18;2.78;;;;;;;15.71;67.24;102919.88;5110422;28;20033;-86
2022/10/06 10:16:29;;;;;;;12.55;2.88;;;;;;;15.87;67.18;102909.97;5109722;28;20027;-86
2022/10/06 10:18:56;;;;;;;15.93;3.10;;;;;;;15.92;65.88;102922.00;5111402;28;20131;-85
2022/10/06 10:21:28;;;;;;;12.93;2.97;;;;;;;15.91;66.64;102935.38;5092837;28;20024;-85
2022/10/06 10:23:55;;;;;;;;;;;;;;;16.07;70.31;102927.31;5089879;28;20127;-85
2022/10/06 10:26:39;;;;;;;13.05;3.03;;;;;;;16.06;64.45;102917.63;5090455;28;19908;-85
2022/10/06 10:29:35;;;;;;;12.43;2.50;;;;;;;16.13;65.71;102917.13;5089965;28;20031;-85
2022/10/06 10:32:39;;;;;;;14.15;2.80;;;;;;;16.25;66.62;102921.66;5088679;28;20020;-85
2022/10/06 10:35:21;;;;;;;10.45;2.20;;;;;;;16.33;64.33;102931.78;5086447;28;20046;-85
2022/10/06 10:37:57;;;;;;;11.95;2.80;;;;;;;16.24;61.22;102927.06;5088940;28;20479;-84
2022/10/06 10:40:33;;;;;;;9.57;2.40;;;;;;;16.30;62.08;102921.34;5088601;28;20028;-85
2022/10/06 10:43:16;;;;;;;10.27;2.28;;;;;;;16.22;61.35;102921.84;5087948;28;20392;-85
2022/10/06 10:45:44;;;;;;;;;;;;;;;16.32;66.05;102929.22;5090683;28;20063;-85
2022/10/06 10:48:20;;;;;;;9.88;2.10;;;;;;;16.23;60.77;102923.56;5089658;28;19922;-84
2022/10/06 10:50:57;;;;;;;9.82;2.42;;;;;;;16.28;60.36;102924.09;5089621;28;20031;-84
2022/10/06 10:53:30;;;;;;;11.98;2.67;;;;;;;16.34;59.97;102916.69;5089719;28;20042;-84
2022/10/06 10:55:56;;;;;;;6.97;2.00;;;;;;;16.36;59.58;102917.44;5089276;28;20383;-84
2022/10/06 10:58:29;;;;;;;10.80;2.20;;;;;;;16.39;60.51;102918.09;5089692;28;20536;-84
2022/10/06 11:01:01;;;;;;;9.00;2.45;;;;;;;16.45;60.90;102928.34;5090330;28;20133;-84
2022/10/06 11:03:26;;;;;;;10.73;2.47;;;;;;;16.63;62.64;102926.25;5089837;28;20032;-85
2022/10/06 11:06:11;;;;;;;13.27;3.05;;;;;;;16.67;61.08;102930.44;5089366;28;20284;-85
2022/10/06 11:08:54;;;;;;;11.55;2.70;;;;;;;16.67;60.86;102927.78;5090658;28;20388;-84
2022/10/06 11:11:40;;;;;;;12.57;3.40;;;;;;;16.82;62.73;102925.94;5089392;28;20032;-84
2022/10/06 11:14:27;;;;;;;14.35;3.05;;;;;;;16.87;61.96;102929.97;5090234;28;20476;-85
2022/10/06 11:17:10;;;;;;;7.78;2.35;;;;;;;16.96;61.97;102922.34;5088627;28;20031;-84
2022/10/06 11:19:47;;;;;;;15.80;3.33;;;;;;;17.01;61.02;102925.53;5093433;28;20031;-85
2022/10/06 11:22:27;;;;;;;11.85;2.53;;;;;;;17.06;59.48;102934.03;5108530;28;20020;-84
2022/10/06 11:25:22;;;;;;;11.35;2.78;;;;;;;17.15;62.00;102928.09;5108628;28;20394;-84
2022/10/06 11:27:56;;;;;;;10.95;2.50;;;;;;;17.05;59.48;102932.34;5108594;28;20148;-85
2022/10/06 11:30:25;;;;;;;11.43;2.50;;;;;;;17.11;58.91;102932.75;5110219;28;20027;-84
2022/10/06 11:33:13;;;;;;;13.45;2.70;;;;;;;17.23;60.02;102931.94;5108671;28;20498;-84
2022/10/06 11:35:43;;;;;;;13.50;2.80;;;;;;;17.20;58.19;102931.28;5109292;28;20019;-84
2022/10/06 11:38:22;;;;;;;9.63;3.00;;;;;;;17.18;58.42;102922.56;5107600;28;20016;-85
2022/10/06 11:41:07;;;;;;;13.18;2.78;;;;;;;17.12;57.96;102922.97;5111756;28;20023;-84
2022/10/06 11:43:47;;;;;;;12.05;3.00;;;;;;;17.20;58.28;102928.63;5112373;28;20023;-84
2022/10/06 11:46:12;;;;;;;10.40;2.28;;;;;;;17.18;57.34;102926.06;5112122;28;20484;-84
2022/10/06 11:48:38;;;;;;;8.18;2.38;;;;;;;17.18;57.30;102935.84;5112339;28;20071;-83